Time;durP1;ratioP1;P1;durP2;ratioP2;P2;SDS_P1;SDS_P2;PMS_P1;PMS_P2;Temp;Humidity;BMP_temperature;BMP_pressure;BME280_temperature;BME280_humidity;BME280_pressure;Samples;Min_cycle;Max_cycle;Signal;HPM_P1;HPM_P2
2022/10/10 00:01:33;;;;;;;7.55;5.43;;;12.80;87.10;;;15.75;53.37;97685.09;5048571;28;20055;-49
2022/10/10 00:04:02;;;;;;;11.57;6.97;;;12.80;87.10;;;15.76;53.34;97686.75;5048795;28;20055;-45
2022/10/10 00:06:30;;;;;;;7.07;4.95;;;12.90;87.20;;;15.81;53.24;97687.00;5048711;28;20049;-48
2022/10/10 00:09:01;;;;;;;7.55;5.53;;;12.90;87.30;;;15.86;53.22;97684.56;5048219;28;20055;-51
2022/10/10 00:11:30;;;;;;;6.18;4.97;;;13.00;87.20;;;15.86;53.44;97681.06;5048320;28;20067;-45
2022/10/10 00:13:58;;;;;;;6.90;5.40;;;13.00;87.70;;;15.84;53.75;97683.94;5048786;28;20051;-47
2022/10/10 00:16:26;;;;;;;9.07;6.32;;;12.90;88.40;;;15.87;53.42;97682.69;5063810;28;20049;-47
2022/10/10 00:18:53;;;;;;;8.32;5.18;;;12.90;88.90;;;15.91;53.51;97678.59;5048102;28;20048;-48
2022/10/10 00:21:21;;;;;;;7.90;6.18;;;12.90;89.00;;;15.94;53.65;97680.91;5048394;28;20049;-46
2022/10/10 00:23:49;;;;;;;7.13;5.70;;;13.00;89.10;;;15.95;53.49;97679.88;5048369;28;20217;-47
2022/10/10 00:26:17;;;;;;;6.82;5.20;;;13.00;89.30;;;16.00;53.68;97682.81;5063286;28;20053;-46
2022/10/10 00:28:46;;;;;;;7.50;4.93;;;13.10;89.20;;;16.00;53.80;97669.38;5048422;28;20063;-48
2022/10/10 00:31:15;;;;;;;6.45;5.20;;;13.20;89.10;;;16.04;53.67;97676.03;5045496;28;20053;-48
2022/10/10 00:33:43;;;;;;;7.25;5.10;;;13.20;88.70;;;16.07;53.55;97674.78;5047282;28;20045;-48
2022/10/10 00:36:11;;;;;;;7.43;5.15;;;13.30;88.40;;;16.09;53.48;97670.91;5043891;28;20236;-46
2022/10/10 00:38:39;;;;;;;8.40;5.53;;;13.20;88.30;;;16.10;53.51;97667.19;5043419;28;20056;-49
2022/10/10 00:41:08;;;;;;;8.15;5.85;;;13.20;88.70;;;16.09;53.50;97668.22;5045254;28;20419;-46
2022/10/10 00:43:35;;;;;;;6.50;5.13;;;13.20;89.20;;;16.11;53.60;97665.31;5045022;28;20240;-47
2022/10/10 00:46:04;;;;;;;8.18;5.38;;;13.20;89.50;;;16.14;53.60;97667.63;5044156;28;20060;-47
2022/10/10 00:48:43;;;;;;;6.13;4.82;;;13.20;89.50;;;16.12;53.58;97673.19;5045226;28;20049;-49
2022/10/10 00:51:15;;;;;;;6.97;5.30;;;13.10;90.10;;;16.12;53.72;97670.50;5044797;28;20047;-49
2022/10/10 00:53:51;;;;;;;7.00;5.53;;;13.10;90.30;;;16.09;53.65;97672.75;5043760;28;20045;-50
2022/10/10 00:56:24;;;;;;;8.38;4.78;;;13.00;90.80;;;16.03;54.06;97677.06;5044488;28;20048;-46
2022/10/10 00:58:56;;;;;;;8.55;5.38;;;12.90;91.90;;;16.02;54.01;97666.50;5043670;28;20213;-47
2022/10/10 01:01:25;;;;;;;7.43;6.07;;;12.90;92.60;;;15.98;54.22;97665.25;5044545;28;20049;-48
2022/10/10 01:03:58;;;;;;;7.47;5.95;;;12.80;93.50;;;15.98;54.25;97665.25;5043644;28;20362;-46
2022/10/10 01:06:26;;;;;;;6.05;5.22;;;12.90;94.20;;;15.97;54.14;97659.03;5043099;28;20052;-45
2022/10/10 01:08:55;;;;;;;8.35;5.72;;;12.90;94.80;;;15.98;54.14;97651.81;5044327;28;20256;-46
2022/10/10 01:12:12;;;;;;;9.73;6.20;;;12.90;95.10;;;15.98;53.99;97651.81;5043364;28;20037;-51
2022/10/10 01:14:58;;;;;;;8.38;5.28;;;12.90;95.90;;;16.00;54.03;97645.22;5043045;28;20053;-50
2022/10/10 01:17:46;;;;;;;5.97;5.25;;;12.90;95.80;;;15.96;54.50;97659.25;5044052;28;20381;-50
2022/10/10 01:20:42;;;;;;;7.35;5.93;;;12.90;96.60;;;15.93;54.15;97650.53;5043384;28;20038;-45
2022/10/10 01:24:00;;;;;;;6.65;5.20;;;12.80;97.30;;;15.90;54.35;97645.56;5044200;28;20060;-47
2022/10/10 01:27:00;;;;;;;7.35;5.53;;;12.80;98.20;;;15.88;54.42;97650.31;5042569;28;20041;-47
2022/10/10 01:29:52;;;;;;;9.50;5.72;;;12.80;98.60;;;15.86;54.63;97649.66;5047438;28;20084;-47
2022/10/10 01:32:33;;;;;;;7.63;5.82;;;12.70;99.70;;;15.79;54.60;97643.41;5044022;28;20049;-49
2022/10/10 01:35:21;;;;;;;7.13;4.80;;;12.70;99.90;;;15.77;54.56;97641.94;5044397;28;20051;-47
2022/10/10 01:38:28;;;;;;;7.35;5.05;;;12.60;99.90;;;15.76;54.88;97649.19;5043049;28;20054;-47
2022/10/10 01:41:17;;;;;;;8.90;5.50;;;12.70;99.90;;;15.76;54.90;97641.13;5044010;28;20239;-48
2022/10/10 01:43:46;;;;;;;8.40;5.63;;;12.60;99.90;;;15.74;55.09;97651.19;5043222;28;20049;-46
2022/10/10 01:46:17;;;;;;;11.32;6.20;;;12.60;99.90;;;15.72;55.18;97643.34;5043583;28;20075;-48
2022/10/10 01:48:51;;;;;;;5.60;5.00;;;12.70;99.90;;;15.74;55.28;97645.81;5044253;28;20053;-51
2022/10/10 01:51:57;;;;;;;7.28;5.63;;;12.70;99.90;;;15.74;55.56;97646.69;5044161;28;20057;-49
2022/10/10 01:55:01;;;;;;;8.65;5.55;;;12.70;99.90;;;15.80;55.18;97642.41;5043657;28;20051;-49
2022/10/10 01:57:50;;;;;;;7.18;5.40;;;12.70;99.90;;;15.84;55.15;97646.34;5043128;28;20052;-49
2022/10/10 02:00:18;;;;;;;7.50;5.13;;;12.80;99.90;;;15.84;55.32;97640.13;5042575;28;20053;-47
2022/10/10 02:03:15;;;;;;;7.13;5.28;;;12.80;99.90;;;15.81;55.44;97638.66;5043278;28;20045;-48
2022/10/10 02:06:08;;;;;;;6.05;4.65;;;12.80;99.90;;;15.85;55.29;97629.19;5042489;28;20041;-46
2022/10/10 02:09:09;;;;;;;8.25;4.97;;;12.80;99.90;;;15.86;55.68;97628.19;5041906;28;20045;-48
2022/10/10 02:11:39;;;;;;;7.53;4.78;;;12.80;99.90;;;15.84;55.50;97630.25;5041336;28;20076;-46
2022/10/10 02:14:30;;;;;;;6.60;5.90;;;12.80;99.90;;;15.84;55.38;97637.44;5043329;28;20343;-47
2022/10/10 02:17:01;;;;;;;6.43;5.32;;;12.80;99.90;;;15.85;55.68;97633.75;5042131;28;20344;-46
2022/10/10 02:19:30;;;;;;;6.32;4.93;;;12.80;99.90;;;15.85;55.24;97641.81;5036327;28;20052;-49
2022/10/10 02:21:59;;;;;;;8.63;5.47;;;12.80;99.90;;;15.83;55.76;97633.94;5023268;28;20205;-48
2022/10/10 02:24:27;;;;;;;6.05;4.63;;;12.80;99.90;;;15.84;55.50;97634.75;5022662;28;20053;-49
2022/10/10 02:27:20;;;;;;;7.88;5.53;;;12.80;99.90;;;15.88;55.08;97634.19;5022876;28;20237;-49
2022/10/10 02:29:51;;;;;;;5.90;4.65;;;12.90;99.90;;;15.87;55.31;97632.50;5031809;28;20065;-47
2022/10/10 02:32:42;;;;;;;6.55;5.00;;;12.80;99.90;;;15.83;55.31;97631.25;5021699;28;20050;-47
2022/10/10 02:35:24;;;;;;;5.50;4.80;;;12.80;99.90;;;15.82;55.71;97631.44;5023183;28;20056;-45
2022/10/10 02:37:53;;;;;;;7.63;5.32;;;12.80;99.90;;;15.80;55.60;97633.50;5021539;28;20080;-45
2022/10/10 02:40:27;;;;;;;10.55;5.47;;;12.70;99.90;;;15.81;55.62;97630.63;5022524;28;20052;-45
2022/10/10 02:42:58;;;;;;;6.03;4.90;;;12.70;99.90;;;15.80;55.48;97628.97;5022424;28;20064;-50
2022/10/10 02:45:29;;;;;;;6.25;5.30;;;12.70;99.90;;;15.81;55.46;97625.25;5022927;28;20049;-49
2022/10/10 02:47:57;;;;;;;7.15;4.97;;;12.70;99.90;;;15.82;55.32;97628.75;5021479;28;20052;-49
2022/10/10 02:50:27;;;;;;;5.95;4.35;;;12.70;99.90;;;15.75;55.28;97624.16;5022936;28;20049;-49
2022/10/10 02:52:56;;;;;;;7.93;5.07;;;12.70;99.90;;;15.70;55.44;97631.13;5021561;28;20344;-47
2022/10/10 02:55:25;;;;;;;8.52;4.78;;;12.60;99.90;;;15.68;55.38;97625.97;5023172;28;20042;-46
2022/10/10 02:57:53;;;;;;;5.90;4.78;;;12.60;99.90;;;15.68;55.52;97625.97;5022285;28;20045;-48
2022/10/10 03:00:21;;;;;;;5.47;4.55;;;12.60;99.90;;;15.67;55.51;97626.16;5022341;28;20049;-50
2022/10/10 03:02:48;;;;;;;7.07;4.78;;;12.50;99.90;;;15.64;55.61;97624.66;5022585;28;20049;-47
2022/10/10 03:05:17;;;;;;;6.93;5.10;;;12.60;99.90;;;15.63;55.67;97631.06;5023088;28;20222;-47
2022/10/10 03:07:45;;;;;;;7.10;4.97;;;12.60;99.90;;;15.64;55.61;97631.88;5021758;28;20050;-45
2022/10/10 03:10:12;;;;;;;7.45;5.68;;;12.60;99.90;;;15.66;55.60;97636.03;5023012;28;20229;-47
2022/10/10 03:12:40;;;;;;;6.97;5.30;;;12.60;99.90;;;15.67;55.53;97637.72;5023143;28;20046;-48
2022/10/10 03:15:08;;;;;;;6.40;5.18;;;12.70;99.90;;;15.69;55.66;97641.03;5022463;28;20060;-48
2022/10/10 03:17:39;;;;;;;8.13;5.07;;;12.70;99.90;;;15.71;55.35;97640.84;5022113;28;20049;-47
2022/10/10 03:20:07;;;;;;;6.85;5.15;;;12.80;99.90;;;15.71;55.42;97644.34;5022321;28;20052;-47
2022/10/10 03:22:35;;;;;;;9.25;6.10;;;12.70;99.90;;;15.71;55.34;97646.19;5021786;28;20260;-48
2022/10/10 03:25:03;;;;;;;6.65;5.72;;;12.70;99.90;;;15.68;55.44;97638.53;5022506;28;20052;-48
2022/10/10 03:27:31;;;;;;;7.85;5.85;;;12.60;99.90;;;15.65;55.39;97642.44;5022078;28;20056;-47
2022/10/10 03:29:59;;;;;;;8.05;5.30;;;12.50;99.90;;;15.62;55.49;97640.13;5022210;28;20352;-50
2022/10/10 03:32:27;;;;;;;7.72;5.57;;;12.60;99.90;;;15.63;55.31;97625.69;5021558;28;20239;-46
2022/10/10 03:34:55;;;;;;;7.03;5.97;;;12.60;99.90;;;15.65;55.18;97628.19;5021721;28;20046;-45
2022/10/10 03:37:22;;;;;;;11.32;6.07;;;12.60;99.90;;;15.64;55.08;97637.25;5022005;28;20046;-45
2022/10/10 03:39:50;;;;;;;7.50;6.03;;;12.50;99.90;;;15.64;55.06;97642.63;5022404;28;20052;-48
2022/10/10 03:42:18;;;;;;;10.68;6.05;;;12.50;99.90;;;15.62;55.12;97634.75;5021412;28;20050;-48
2022/10/10 03:44:46;;;;;;;8.35;6.63;;;12.50;99.90;;;15.60;55.01;97631.44;5022405;28;20052;-47
2022/10/10 03:47:14;;;;;;;8.85;5.78;;;12.50;99.90;;;15.60;55.13;97631.44;5022168;28;20268;-47
2022/10/10 03:49:41;;;;;;;7.45;5.40;;;12.50;99.90;;;15.58;55.09;97635.34;5022259;28;20068;-47
2022/10/10 03:52:09;;;;;;;7.38;5.40;;;12.50;99.90;;;15.57;55.16;97631.84;5022171;28;20042;-48
2022/10/10 03:54:37;;;;;;;7.55;5.72;;;12.50;99.90;;;15.55;55.04;97626.66;5022174;28;20042;-48
2022/10/10 03:57:05;;;;;;;8.35;6.15;;;12.50;99.90;;;15.52;55.14;97626.22;5021423;28;20052;-48
2022/10/10 03:59:32;;;;;;;8.07;5.82;;;12.40;99.90;;;15.42;55.42;97623.03;5022060;28;20076;-45
2022/10/10 04:02:00;;;;;;;7.38;5.45;;;12.30;99.90;;;15.40;55.55;97625.09;5022173;28;20052;-51
2022/10/10 04:04:28;;;;;;;9.52;6.00;;;12.30;99.90;;;15.42;55.53;97631.09;5022102;28;20050;-45
2022/10/10 04:06:56;;;;;;;8.15;5.32;;;12.30;99.90;;;15.40;55.59;97633.97;5021537;28;20056;-47
2022/10/10 04:09:24;;;;;;;6.70;4.32;;;12.30;99.90;;;15.40;55.71;97641.19;5022560;28;20054;-48
2022/10/10 04:11:51;;;;;;;6.20;4.63;;;12.30;99.90;;;15.40;55.61;97627.78;5025238;28;20050;-46
2022/10/10 04:14:19;;;;;;;7.72;5.95;;;12.30;99.90;;;15.38;55.46;97625.28;5025610;28;20050;-50
2022/10/10 04:16:47;;;;;;;8.02;6.22;;;12.30;99.90;;;15.38;55.36;97625.28;5025562;28;20050;-50
2022/10/10 04:19:15;;;;;;;7.93;5.28;;;12.30;99.90;;;15.34;55.42;97622.16;5025297;28;20052;-49
2022/10/10 04:21:43;;;;;;;11.40;5.30;;;12.20;99.90;;;15.34;55.33;97624.00;5025628;28;20048;-51
2022/10/10 04:24:12;;;;;;;9.73;5.35;;;12.20;99.90;;;15.34;55.34;97619.47;5025431;28;20056;-49
2022/10/10 04:26:39;;;;;;;7.20;5.50;;;12.20;99.90;;;15.36;55.34;97627.31;5024944;28;20052;-48
2022/10/10 04:29:07;;;;;;;10.40;5.60;;;12.30;99.90;;;15.34;55.43;97627.50;5025182;28;20291;-49
2022/10/10 04:31:35;;;;;;;8.45;5.70;;;12.20;99.90;;;15.35;55.34;97623.81;5024619;28;20060;-48
2022/10/10 04:34:03;;;;;;;7.10;5.10;;;12.30;99.90;;;15.38;55.30;97629.81;5025286;28;20038;-51
2022/10/10 04:36:31;;;;;;;8.85;6.07;;;12.30;99.90;;;15.38;55.34;97632.50;5025451;28;20060;-50
2022/10/10 04:38:58;;;;;;;9.55;5.03;;;12.30;99.90;;;15.36;55.32;97616.59;5025703;28;20239;-51
2022/10/10 04:41:26;;;;;;;9.20;4.97;;;12.30;99.90;;;15.36;55.19;97625.47;5025203;28;20214;-53
2022/10/10 04:43:54;;;;;;;7.03;5.03;;;12.30;99.90;;;15.34;55.22;97627.50;5025119;28;20050;-52
2022/10/10 04:46:22;;;;;;;8.45;5.57;;;12.30;99.90;;;15.33;55.23;97625.88;5025023;28;20045;-48
2022/10/10 04:48:50;;;;;;;11.55;5.30;;;12.30;99.90;;;15.32;55.23;97624.19;5025610;28;20057;-50
2022/10/10 04:51:18;;;;;;;9.95;5.93;;;12.20;99.90;;;15.30;55.23;97623.56;5025003;28;20057;-49
2022/10/10 04:53:46;;;;;;;9.18;5.93;;;12.20;99.90;;;15.30;55.24;97630.78;5024793;28;20053;-49
2022/10/10 04:56:17;;;;;;;10.30;6.63;;;12.20;99.90;;;15.28;55.23;97617.56;5025077;28;20042;-49
2022/10/10 04:58:44;;;;;;;9.38;6.75;;;12.20;99.90;;;15.26;55.05;97629.50;5024602;28;20297;-51
2022/10/10 05:01:12;;;;;;;8.15;6.03;;;12.20;99.90;;;15.23;55.37;97617.28;5024814;28;20042;-51
2022/10/10 05:03:40;;;;;;;8.48;6.57;;;12.10;99.90;;;15.20;55.42;97623.06;5024725;28;20050;-48
2022/10/10 05:06:08;;;;;;;9.88;5.68;;;12.10;99.90;;;15.21;55.37;97626.56;5024762;28;20045;-49
2022/10/10 05:08:39;;;;;;;9.27;6.28;;;12.10;99.90;;;15.20;55.57;97619.50;5023877;28;20072;-50
2022/10/10 05:11:07;;;;;;;9.10;6.25;;;12.10;99.90;;;15.24;55.58;97624.31;5024686;28;20050;-48
2022/10/10 05:13:36;;;;;;;10.27;5.95;;;12.20;99.90;;;15.27;55.38;97618.56;5023668;28;20395;-50
2022/10/10 05:16:04;;;;;;;6.90;5.68;;;12.10;99.90;;;15.27;55.56;97623.94;5024565;28;20050;-48
2022/10/10 05:18:32;;;;;;;9.80;6.00;;;12.10;99.90;;;15.23;55.44;97625.34;5023969;28;20052;-53
2022/10/10 05:21:00;;;;;;;9.07;6.57;;;12.10;99.90;;;15.22;55.58;97620.16;5024555;28;20056;-49
2022/10/10 05:23:30;;;;;;;10.77;6.55;;;12.10;99.90;;;15.21;55.67;97618.50;5024156;28;20045;-52
2022/10/10 05:25:58;;;;;;;8.98;6.90;;;12.10;99.90;;;15.19;55.69;97610.66;5024430;28;20054;-49
2022/10/10 05:28:26;;;;;;;9.32;6.82;;;12.10;99.90;;;15.15;55.89;97612.06;5024006;28;20046;-48
2022/10/10 05:30:54;;;;;;;8.13;6.80;;;12.00;99.90;;;15.15;56.13;97612.88;5024950;28;20247;-52
2022/10/10 05:33:22;;;;;;;10.15;7.47;;;12.00;99.90;;;15.11;56.28;97618.81;5024920;28;20049;-51
2022/10/10 05:35:50;;;;;;;7.63;6.13;;;12.00;99.90;;;15.11;56.50;97627.69;5024176;28;20243;-51
2022/10/10 05:38:17;;;;;;;6.93;4.97;;;12.00;99.90;;;15.13;56.44;97631.00;5023778;28;20046;-48
2022/10/10 05:40:45;;;;;;;7.80;4.65;;;12.10;99.90;;;15.12;56.61;97637.41;5024667;28;20053;-50
2022/10/10 05:43:13;;;;;;;6.72;5.13;;;12.10;99.90;;;15.19;56.25;97642.81;5023004;28;20052;-54
2022/10/10 05:45:42;;;;;;;6.53;4.85;;;12.10;99.90;;;15.23;56.51;97643.28;5024301;28;20052;-51
2022/10/10 05:48:09;;;;;;;8.50;4.93;;;12.10;99.90;;;15.24;56.27;97650.31;5023320;28;20072;-50
2022/10/10 05:50:40;;;;;;;5.35;4.25;;;12.20;99.90;;;15.25;56.56;97651.97;5023695;28;20222;-51
2022/10/10 05:53:08;;;;;;;5.70;4.45;;;12.10;99.90;;;15.27;56.51;97660.66;5023878;28;20048;-52
2022/10/10 05:55:36;;;;;;;7.13;5.13;;;12.20;99.90;;;15.26;56.53;97651.78;5023767;28;20236;-50
2022/10/10 05:58:04;;;;;;;5.80;4.32;;;12.20;99.90;;;15.29;56.45;97651.38;5023356;28;20071;-49
2022/10/10 06:00:33;;;;;;;5.05;3.90;;;12.20;99.90;;;15.30;56.30;97653.06;5023671;28;20052;-54
2022/10/10 06:03:02;;;;;;;6.25;4.53;;;12.20;99.90;;;15.32;56.38;97645.66;5024336;28;20049;-50
2022/10/10 06:05:29;;;;;;;5.72;4.05;;;12.30;99.90;;;15.34;56.81;97642.78;5023671;28;20052;-49
2022/10/10 06:07:57;;;;;;;5.68;4.88;;;12.30;99.90;;;15.37;56.61;97642.38;5038178;28;20046;-51
2022/10/10 06:10:41;;;;;;;14.05;5.20;;;12.40;99.90;;;15.43;56.62;97643.47;5023569;28;20244;-50
2022/10/10 06:13:13;;;;;;;7.45;4.90;;;12.40;99.90;;;15.43;56.62;97647.00;5023532;28;20063;-47
2022/10/10 06:15:41;;;;;;;8.30;4.70;;;12.40;99.90;;;15.46;56.56;97645.78;5023755;28;20042;-50
2022/10/10 06:18:10;;;;;;;6.70;4.55;;;12.40;99.90;;;15.52;56.62;97643.13;5021487;28;20054;-51
2022/10/10 06:20:40;;;;;;;7.57;4.55;;;12.50;99.90;;;15.59;56.64;97653.13;5022784;28;20046;-52
2022/10/10 06:23:08;;;;;;;5.07;4.20;;;12.50;99.90;;;15.63;56.69;97660.59;5023889;28;20214;-53
2022/10/10 06:25:36;;;;;;;7.75;4.28;;;12.60;99.90;;;15.68;56.66;97655.47;5023167;28;20046;-50
2022/10/10 06:28:10;;;;;;;6.28;4.47;;;12.60;99.90;;;15.75;56.57;97658.25;5021665;28;20050;-48
2022/10/10 06:30:43;;;;;;;6.43;4.15;;;12.70;99.90;;;15.80;56.84;97668.38;5023026;28;20046;-50
2022/10/10 06:33:11;;;;;;;10.15;4.75;;;12.80;99.90;;;15.85;56.92;97672.16;5019824;28;20056;-48
2022/10/10 06:35:44;;;;;;;9.10;4.88;;;12.90;99.90;;;15.92;56.45;97662.31;5022983;28;20239;-47
2022/10/10 06:38:14;;;;;;;5.70;4.33;;;12.90;99.90;;;16.01;56.48;97672.88;5022748;28;20048;-47
2022/10/10 06:40:42;;;;;;;7.80;3.90;;;12.90;99.90;;;16.06;56.28;97670.47;5023035;28;20042;-52
2022/10/10 06:43:12;;;;;;;7.00;4.03;;;13.10;99.90;;;16.10;56.30;97664.50;5023202;28;20049;-52
2022/10/10 06:45:46;;;;;;;8.90;4.03;;;13.10;99.90;;;16.17;56.54;97667.25;5022548;28;20053;-47
2022/10/10 06:48:14;;;;;;;7.28;4.63;;;13.20;99.90;;;16.22;56.51;97669.31;5022547;28;20231;-49
2022/10/10 06:50:42;;;;;;;10.77;4.47;;;13.20;99.90;;;16.25;56.27;97675.13;5022774;28;20049;-50
2022/10/10 06:53:10;;;;;;;6.95;4.22;;;13.20;99.90;;;16.27;56.35;97677.63;5023284;28;20053;-48
2022/10/10 06:55:46;;;;;;;10.40;5.03;;;13.30;99.90;;;16.29;56.20;97679.09;5022692;28;20048;-49
2022/10/10 06:58:14;;;;;;;7.70;5.28;;;13.30;99.90;;;16.30;56.33;97678.06;5022200;28;20043;-50
2022/10/10 07:00:52;;;;;;;7.13;4.95;;;13.30;99.90;;;16.34;56.34;97689.22;5022661;28;20052;-48
2022/10/10 07:03:20;;;;;;;6.53;5.10;;;13.30;99.90;;;16.34;56.06;97697.28;5022756;28;20042;-52
2022/10/10 07:05:54;;;;;;;8.63;5.13;;;13.30;99.90;;;16.34;56.02;97697.28;5022586;28;20049;-52
2022/10/10 07:08:23;;;;;;;10.30;7.22;;;13.30;99.90;;;16.27;55.88;97702.63;5020903;28;20049;-50
2022/10/10 07:10:51;;;;;;;8.07;5.90;;;13.10;99.90;;;16.23;56.12;97700.53;5022565;28;20052;-51
2022/10/10 07:13:20;;;;;;;6.07;5.13;;;13.00;99.90;;;16.19;56.19;97694.72;5021564;28;20055;-49
2022/10/10 07:15:48;;;;;;;6.95;5.07;;;13.00;99.90;;;16.18;56.27;97687.69;5021382;28;20052;-49
2022/10/10 07:18:19;;;;;;;5.78;5.07;;;13.10;99.90;;;16.17;56.34;97686.03;5022304;28;20045;-50
2022/10/10 07:20:48;;;;;;;8.10;5.35;;;13.10;99.90;;;16.18;56.48;97689.53;5022466;28;20042;-51
2022/10/10 07:23:16;;;;;;;6.30;4.80;;;13.20;99.90;;;16.21;56.51;97691.84;5022579;28;20225;-49
2022/10/10 07:25:45;;;;;;;8.05;5.68;;;13.20;99.90;;;16.24;56.41;97688.75;5022464;28;20052;-49
2022/10/10 07:28:13;;;;;;;7.65;4.82;;;13.30;99.90;;;16.29;56.70;97692.53;5022730;28;20060;-48
2022/10/10 07:30:43;;;;;;;8.48;5.35;;;13.40;99.90;;;16.38;56.67;97695.91;5022747;28;20263;-52
2022/10/10 07:33:12;;;;;;;8.38;5.32;;;13.50;99.90;;;16.49;56.73;97706.06;5022475;28;20045;-48
2022/10/10 07:35:41;;;;;;;8.25;4.55;;;13.60;99.90;;;16.60;56.50;97717.31;5022015;28;20237;-51
2022/10/10 07:38:12;;;;;;;10.38;5.68;;;13.70;99.90;;;16.68;56.32;97712.59;5021879;28;20050;-50
2022/10/10 07:40:40;;;;;;;8.20;5.22;;;13.80;99.90;;;16.78;56.10;97719.47;5022132;28;20038;-51
2022/10/10 07:43:08;;;;;;;7.25;4.88;;;13.90;99.90;;;16.88;56.09;97725.34;5022331;28;20042;-51
2022/10/10 07:45:36;;;;;;;6.82;5.10;;;14.00;99.90;;;16.96;56.32;97721.66;5024119;28;20056;-50
2022/10/10 07:48:04;;;;;;;6.63;5.63;;;14.10;99.90;;;17.05;56.00;97715.91;5026404;28;20057;-50
2022/10/10 07:50:32;;;;;;;9.75;5.05;;;14.20;99.90;;;17.12;56.00;97722.16;5026653;28;20061;-53
2022/10/10 07:53:00;;;;;;;7.75;4.20;;;14.30;99.90;;;17.17;56.22;97713.47;5026103;28;20251;-50
2022/10/10 07:55:28;;;;;;;9.32;5.07;;;14.30;99.90;;;17.22;56.13;97718.25;5025970;28;20052;-52
2022/10/10 07:57:58;;;;;;;9.38;4.00;;;14.40;99.90;;;17.27;55.66;97723.84;5025590;28;20046;-52
2022/10/10 08:00:26;;;;;;;9.00;5.13;;;14.40;99.90;;;17.32;55.96;97721.38;5025862;28;20041;-50
2022/10/10 08:02:54;;;;;;;7.88;5.85;;;14.50;99.90;;;17.36;56.14;97728.00;5025874;28;20058;-54
2022/10/10 08:05:22;;;;;;;7.18;5.60;;;14.50;99.90;;;17.39;56.22;97722.25;5024929;28;20056;-52
2022/10/10 08:07:50;;;;;;;12.88;6.72;;;14.60;99.90;;;17.45;56.05;97732.19;5025340;28;20046;-52
2022/10/10 08:10:18;;;;;;;8.13;5.60;;;14.60;99.90;;;17.49;55.91;97730.75;5025741;28;20060;-51
2022/10/10 08:12:47;;;;;;;15.18;6.30;;;14.70;99.90;;;17.50;56.07;97728.88;5025762;28;20104;-50
2022/10/10 08:15:15;;;;;;;9.60;7.47;;;14.60;99.90;;;17.49;56.11;97732.63;5026176;28;20046;-50
2022/10/10 08:17:43;;;;;;;9.32;6.13;;;14.70;99.90;;;17.50;56.08;97745.03;5024804;28;20068;-49
2022/10/10 08:20:10;;;;;;;10.60;6.97;;;14.60;99.90;;;17.49;56.00;97735.31;5025711;28;20042;-50
2022/10/10 08:22:39;;;;;;;9.23;6.25;;;14.60;99.90;;;17.49;56.03;97730.75;5025532;28;20052;-53
2022/10/10 08:25:07;;;;;;;5.97;5.38;;;14.60;99.90;;;17.53;56.08;97741.94;5025563;28;20052;-53
2022/10/10 08:27:35;;;;;;;9.82;5.57;;;14.70;99.90;;;17.58;56.31;97738.63;5025065;28;20049;-51
2022/10/10 08:30:04;;;;;;;7.03;4.75;;;14.80;99.90;;;17.60;56.21;97739.25;5025681;28;20360;-52
2022/10/10 08:32:32;;;;;;;8.18;4.80;;;14.80;99.90;;;17.63;56.25;97737.00;5025223;28;20251;-51
2022/10/10 08:35:00;;;;;;;7.22;4.05;;;14.80;99.90;;;17.67;56.11;97737.41;5025412;28;20044;-53
2022/10/10 08:37:28;;;;;;;8.50;4.35;;;14.90;99.90;;;17.68;56.21;97737.22;5025089;28;20054;-49
2022/10/10 08:40:05;;;;;;;4.75;3.70;;;14.90;99.90;;;17.69;56.16;97738.84;5040267;28;20050;-51
2022/10/10 08:42:55;;;;;;;4.60;3.72;;;15.00;99.90;;;17.73;56.12;97746.53;5023947;28;20333;-52
2022/10/10 08:45:26;;;;;;;4.72;3.65;;;15.00;99.90;;;17.77;56.25;97742.41;5024105;28;20052;-52
2022/10/10 08:48:09;;;;;;;5.15;3.25;;;15.10;99.90;;;17.81;56.31;97740.94;5023378;28;20046;-52
2022/10/10 08:50:48;;;;;;;5.25;3.50;;;15.20;99.90;;;17.86;56.26;97741.22;5022718;28;20050;-50
2022/10/10 08:53:46;;;;;;;6.00;4.00;;;15.10;99.90;;;17.90;56.26;97743.28;5023943;28;20050;-50
2022/10/10 08:56:22;;;;;;;6.53;3.35;;;15.20;99.90;;;17.94;56.35;97742.88;5025618;28;20054;-52
2022/10/10 08:58:59;;;;;;;4.55;3.60;;;15.20;99.90;;;17.94;56.32;97745.56;5023474;28;20050;-52
2022/10/10 09:01:34;;;;;;;3.90;3.22;;;15.20;99.90;;;17.93;56.30;97750.09;5023748;28;20337;-50
2022/10/10 09:04:05;;;;;;;5.22;3.45;;;15.20;99.90;;;17.94;56.46;97746.38;5024670;28;20321;-50
2022/10/10 09:07:17;;;;;;;4.82;3.67;;;15.30;99.90;;;17.88;56.54;97742.66;5023168;28;20041;-52
2022/10/10 09:10:05;;;;;;;7.00;3.95;;;15.20;99.90;;;17.97;56.33;97739.75;5024614;28;20080;-50
2022/10/10 09:13:18;;;;;;;5.95;3.80;;;15.30;99.90;;;18.02;56.37;97729.19;5023562;28;20240;-51
2022/10/10 09:16:18;;;;;;;7.32;4.72;;;15.40;99.90;;;18.15;56.42;97742.69;5023712;28;20044;-49
2022/10/10 09:18:55;;;;;;;7.28;5.00;;;15.50;99.90;;;18.23;56.67;97736.25;5023285;28;20045;-50
2022/10/10 09:21:35;;;;;;;6.03;3.55;;;15.60;99.90;;;18.26;56.33;97733.97;5024624;28;20321;-52
2022/10/10 09:24:26;;;;;;;5.43;3.40;;;15.60;99.90;;;18.32;56.22;97736.84;5023422;28;20269;-53
2022/10/10 09:27:03;;;;;;;7.43;3.72;;;15.70;99.90;;;18.35;56.31;97734.56;5023650;28;20045;-50
2022/10/10 09:29:40;;;;;;;5.78;3.80;;;15.70;99.90;;;18.38;56.31;97742.25;5023975;28;20056;-49
2022/10/10 09:32:27;;;;;;;4.32;3.47;;;15.70;99.90;;;18.40;56.15;97744.75;5024161;28;20241;-50
2022/10/10 09:35:21;;;;;;;7.35;3.25;;;15.80;99.90;;;18.44;56.05;97743.28;5019577;28;20053;-53
2022/10/10 09:38:00;;;;;;;11.98;4.57;;;15.70;99.90;;;18.46;55.99;97744.72;5023789;28;20041;-50
2022/10/10 09:40:36;;;;;;;9.80;5.25;;;15.80;99.90;;;18.47;56.21;97746.38;5023250;28;20049;-50
2022/10/10 09:43:15;;;;;;;17.25;5.43;;;15.80;99.90;;;18.47;56.44;97759.84;5022621;28;20046;-50
2022/10/10 09:45:55;;;;;;;8.52;5.72;;;15.80;99.90;;;18.49;56.43;97751.56;5023090;28;20216;-49
2022/10/10 09:48:40;;;;;;;8.68;5.70;;;15.80;99.90;;;18.52;56.51;97748.44;5024162;28;20054;-50
2022/10/10 09:51:14;;;;;;;10.18;5.78;;;15.80;99.90;;;18.55;56.52;97744.50;5022913;28;20056;-52
2022/10/10 09:53:44;;;;;;;10.77;4.53;;;15.80;99.90;;;18.58;56.66;97744.91;5023827;28;20045;-50
2022/10/10 09:56:19;;;;;;;6.38;4.68;;;15.90;99.90;;;18.64;56.63;97743.25;5023690;28;20038;-51
2022/10/10 09:58:51;;;;;;;14.73;5.18;;;15.90;99.90;;;18.69;56.61;97732.66;5023907;28;20049;-50
2022/10/10 10:01:24;;;;;;;7.57;4.95;;;16.00;99.90;;;18.74;56.80;97732.03;5023653;28;20240;-51
2022/10/10 10:04:16;;;;;;;;;;;16.10;99.90;;;18.93;56.33;97744.66;5024089;28;20045;-48
2022/10/10 10:07:05;;;;;;;8.63;4.93;;;16.10;99.90;;;18.93;56.51;97739.25;5023159;28;20120;-50
2022/10/10 10:09:33;;;;;;;8.15;5.45;;;16.20;99.90;;;18.95;56.70;97739.06;5023424;28;20247;-50
2022/10/10 10:12:03;;;;;;;9.90;4.93;;;16.30;99.90;;;18.98;56.96;97744.00;5023575;28;20056;-53
2022/10/10 10:14:36;;;;;;;8.38;5.20;;;16.30;99.90;;;19.03;56.93;97745.03;5022166;28;20312;-49
2022/10/10 10:17:19;;;;;;;8.07;5.60;;;16.40;99.90;;;19.10;56.92;97745.03;5023122;28;20046;-50
2022/10/10 10:19:48;;;;;;;10.33;4.90;;;16.40;99.90;;;19.16;56.72;97741.47;5021834;28;20054;-54
2022/10/10 10:22:45;;;;;;;6.22;4.25;;;16.50;99.90;;;19.19;56.81;97735.66;5023079;28;20041;-52
2022/10/10 10:25:36;;;;;;;6.32;3.72;;;16.60;99.90;;;19.26;56.60;97749.09;5021882;28;20356;-51
2022/10/10 10:28:10;;;;;;;6.95;3.88;;;16.70;99.90;;;19.31;56.39;97743.91;5021810;28;20237;-54
2022/10/10 10:30:40;;;;;;;4.70;3.67;;;16.70;99.90;;;19.32;56.62;97748.25;5023053;28;20058;-49
2022/10/10 10:33:58;;;;;;;5.80;3.65;;;16.70;99.90;;;19.39;56.57;97740.13;5021924;28;20041;-54
2022/10/10 10:36:45;;;;;;;6.75;3.35;;;16.80;99.90;;;19.48;56.53;97739.66;5023397;28;20072;-50
2022/10/10 10:39:24;;;;;;;5.78;3.60;;;16.90;99.90;;;19.54;56.48;97743.38;5023889;28;20045;-54
2022/10/10 10:42:58;;;;;;;9.57;3.83;;;17.00;99.90;;;19.61;56.36;97751.44;5023034;28;20048;-50
2022/10/10 10:45:59;;;;;;;6.72;3.10;;;17.00;99.90;;;19.69;56.27;97751.16;5022976;28;20048;-51